Time;durP1;ratioP1;P1;durP2;ratioP2;P2;SDS_P1;SDS_P2;PMS_P1;PMS_P2;Temp;Humidity;BMP_temperature;BMP_pressure;BME280_temperature;BME280_humidity;BME280_pressure;Samples;Min_cycle;Max_cycle;Signal;HPM_P1;HPM_P2
2023/03/01 00:01:12;;;;;;;13.43;12.02;;;4.10;96.90;;;;;;4926592;29;20171;-91
2023/03/01 00:03:38;;;;;;;13.00;11.70;;;4.20;89.90;;;;;;4923454;29;20186;-90
2023/03/01 00:06:05;;;;;;;13.63;11.40;;;3.70;95.80;;;;;;4929648;29;20185;-90
2023/03/01 00:08:33;;;;;;;16.52;11.80;;;4.20;90.00;;;;;;4926476;29;20418;-90
2023/03/01 00:11:07;;;;;;;16.20;12.32;;;4.00;96.90;;;;;;4920055;29;20234;-90
2023/03/01 00:13:34;;;;;;;12.90;11.00;;;4.10;90.30;;;;;;4918942;29;20253;-89
2023/03/01 00:16:06;;;;;;;14.57;12.45;;;4.10;90.60;;;;;;4919545;29;20548;-90
2023/03/01 00:18:32;;;;;;;15.63;11.88;;;4.10;90.70;;;;;;4917818;29;20190;-91
2023/03/01 00:20:59;;;;;;;17.77;12.70;;;4.00;91.10;;;;;;4919821;29;20213;-91
2023/03/01 00:23:24;;;;;;;12.75;11.20;;;4.70;91.60;;;;;;4918415;29;20642;-90
2023/03/01 00:25:51;;;;;;;15.73;12.40;;;4.00;91.00;;;;;;4917837;29;20204;-90
2023/03/01 00:28:18;;;;;;;12.48;10.32;;;4.40;91.30;;;;;;4918882;29;20431;-90
2023/03/01 00:30:44;;;;;;;11.45;10.32;;;4.00;97.00;;;;;;4918153;29;20277;-90
2023/03/01 00:33:10;;;;;;;17.10;11.70;;;;;;;;;;4919112;29;20217;-90
2023/03/01 00:35:36;;;;;;;14.60;12.25;;;3.90;96.60;;;;;;4917614;29;20402;-90
2023/03/01 00:38:02;;;;;;;15.07;12.13;;;3.90;91.10;;;;;;4915613;29;20544;-89
2023/03/01 00:40:29;;;;;;;13.18;11.45;;;3.90;91.00;;;;;;4915685;29;20442;-89
2023/03/01 00:42:55;;;;;;;14.73;11.82;;;3.80;90.90;;;;;;4910385;29;20745;-90
2023/03/01 00:45:21;;;;;;;14.23;11.93;;;;;;;;;;4897587;29;20191;-90
2023/03/01 00:47:48;;;;;;;13.10;11.73;;;3.80;99.40;;;;;;4905916;29;20458;-90
2023/03/01 00:50:13;;;;;;;12.35;11.00;;;3.80;91.10;;;;;;4916795;29;20510;-90
2023/03/01 00:52:39;;;;;;;15.87;12.10;;;3.70;91.20;;;;;;4915969;29;20186;-88
2023/03/01 00:55:05;;;;;;;13.00;11.13;;;4.50;91.80;;;;;;4916507;29;20406;-90
2023/03/01 00:57:32;;;;;;;14.77;11.20;;;3.50;96.00;;;;;;4916469;29;20551;-89
2023/03/01 00:59:57;;;;;;;14.95;12.18;;;3.60;99.60;;;;;;4915821;29;20516;-89
2023/03/01 01:02:23;;;;;;;13.30;11.23;;;3.60;91.70;;;;;;4916381;29;20257;-90
2023/03/01 01:04:49;;;;;;;12.40;10.97;;;;;;;;;;4915579;29;20193;-90
2023/03/01 01:07:15;;;;;;;13.38;11.93;;;3.50;91.50;;;;;;4916164;29;20205;-89
2023/03/01 01:09:41;;;;;;;14.55;11.52;;;3.70;92.10;;;;;;4917314;29;20177;-90
2023/03/01 01:12:08;;;;;;;14.50;10.90;;;3.50;92.10;;;;;;4918272;29;20205;-89
2023/03/01 01:14:34;;;;;;;13.23;10.63;;;3.50;91.90;;;;;;4916516;29;20194;-89
2023/03/01 01:17:00;;;;;;;16.90;11.70;;;4.70;92.40;;;;;;4918509;29;20209;-89
2023/03/01 01:19:26;;;;;;;17.50;12.27;;;4.50;92.40;;;;;;4919862;29;20182;-89
2023/03/01 01:21:52;;;;;;;13.30;12.02;;;3.50;91.80;;;;;;4919235;29;20638;-90
2023/03/01 01:24:19;;;;;;;16.08;12.50;;;4.30;92.40;;;;;;4919718;29;20182;-90
2023/03/01 01:26:45;;;;;;;13.68;12.27;;;3.60;92.20;;;;;;4919299;29;20218;-89
2023/03/01 01:29:11;;;;;;;12.35;11.02;;;4.00;92.60;;;;;;4918635;29;20245;-89
2023/03/01 01:31:39;;;;;;;13.23;11.88;;;3.50;92.50;;;;;;4919434;29;20713;-83
2023/03/01 01:34:07;;;;;;;14.55;11.77;;;3.40;92.60;;;;;;4917702;29;20190;-90
2023/03/01 01:36:34;;;;;;;14.75;12.35;;;3.30;93.50;;;;;;4919778;29;20653;-90
2023/03/01 01:39:00;;;;;;;16.83;12.98;;;3.30;93.30;;;;;;4918511;29;20253;-89
2023/03/01 01:41:27;;;;;;;13.33;11.00;;;3.80;93.50;;;;;;4920031;29;20650;-90
2023/03/01 01:44:12;;;;;;;15.10;12.38;;;3.90;93.40;;;;;;4917607;29;20823;-90
2023/03/01 01:46:42;;;;;;;15.80;11.13;;;3.20;93.30;;;;;;4919262;29;20341;-82
2023/03/01 01:49:22;;;;;;;13.05;11.60;;;3.20;93.40;;;;;;4920387;29;20170;-90
2023/03/01 01:51:51;;;;;;;15.63;12.18;;;3.10;93.00;;;;;;4919227;29;20174;-90
2023/03/01 01:54:25;;;;;;;14.52;11.80;;;4.30;93.80;;;;;;4919293;29;20181;-90
2023/03/01 01:56:56;;;;;;;16.05;11.98;;;3.00;93.80;;;;;;4917970;29;20204;-90
2023/03/01 01:59:24;;;;;;;15.98;12.57;;;3.30;94.50;;;;;;4917650;29;20208;-89
2023/03/01 02:01:51;;;;;;;13.63;11.73;;;3.00;94.20;;;;;;4916718;29;20190;-89
2023/03/01 02:04:17;;;;;;;13.93;11.70;;;4.10;94.40;;;;;;4919343;29;20197;-89
2023/03/01 02:07:02;;;;;;;12.33;11.13;;;3.00;94.10;;;;;;4920010;29;20231;-87
2023/03/01 02:09:30;;;;;;;15.98;12.57;;;3.00;93.90;;;;;;4919664;29;20181;-90
2023/03/01 02:11:57;;;;;;;14.65;11.73;;;3.00;94.00;;;;;;4918280;29;20195;-90
2023/03/01 02:14:22;;;;;;;15.52;12.15;;;3.00;94.50;;;;;;4919470;29;20186;-90
2023/03/01 02:16:48;;;;;;;19.13;11.23;;;3.10;94.20;;;;;;4918182;29;20195;-90
2023/03/01 02:19:37;;;;;;;11.50;10.27;;;3.10;94.00;;;;;;4919412;29;20647;-90
2023/03/01 02:22:14;;;;;;;13.18;10.82;;;3.00;94.20;;;;;;4917922;29;20179;-90
2023/03/01 02:25:10;;;;;;;11.73;10.63;;;3.00;94.10;;;;;;4919445;29;20174;-82
2023/03/01 02:28:10;;;;;;;12.02;10.02;;;3.10;93.60;;;;;;4927549;29;20205;-90
2023/03/01 02:30:36;;;;;;;15.18;10.63;;;3.00;93.30;;;;;;4929541;29;20185;-88
2023/03/01 02:33:03;;;;;;;13.70;10.30;;;3.50;93.80;;;;;;4941024;29;20185;-89
2023/03/01 02:35:33;;;;;;;12.63;10.88;;;2.80;93.40;;;;;;4941077;29;20518;-88
2023/03/01 02:38:01;;;;;;;13.82;11.23;;;2.80;99.90;;;;;;4940893;29;20197;-89
2023/03/01 02:40:30;;;;;;;12.25;10.73;;;2.80;99.90;;;;;;4929644;29;20516;-90
2023/03/01 02:42:58;;;;;;;11.90;9.88;;;2.90;99.90;;;;;;4917119;29;21129;-89
2023/03/01 02:45:25;;;;;;;15.90;11.32;;;2.90;99.90;;;;;;4919112;29;20229;-88
2023/03/01 02:47:54;;;;;;;14.90;10.98;;;2.80;99.90;;;;;;4917772;29;20232;-90
2023/03/01 02:50:28;;;;;;;12.63;10.75;;;2.90;94.10;;;;;;4918787;29;20576;-91
2023/03/01 02:53:12;;;;;;;13.80;10.20;;;2.70;98.50;;;;;;4918004;29;20272;-90
2023/03/01 02:55:38;;;;;;;11.18;9.73;;;3.80;94.10;;;;;;4917138;29;20169;-90
2023/03/01 02:58:04;;;;;;;14.52;10.82;;;2.70;99.90;;;;;;4917592;29;20391;-90
2023/03/01 03:00:35;;;;;;;14.43;11.00;;;2.60;93.60;;;;;;4918044;29;20185;-89
2023/03/01 03:03:01;;;;;;;13.07;10.20;;;2.60;99.90;;;;;;4918081;29;20444;-90
2023/03/01 03:05:29;;;;;;;19.13;11.37;;;2.60;93.50;;;;;;4916751;29;20188;-90
2023/03/01 03:07:56;;;;;;;12.40;10.45;;;2.50;99.90;;;;;;4918311;29;20216;-89
2023/03/01 03:10:25;;;;;;;11.45;10.15;;;2.50;96.20;;;;;;4918233;29;20536;-89
2023/03/01 03:12:56;;;;;;;12.88;10.40;;;3.20;99.90;;;;;;4916008;29;20192;-88
2023/03/01 03:15:22;;;;;;;12.18;9.55;;;2.50;99.90;;;;;;4916075;29;20549;-89
2023/03/01 03:17:49;;;;;;;12.30;10.25;;;2.40;99.90;;;;;;4916854;29;20184;-89
2023/03/01 03:20:18;;;;;;;11.73;10.15;;;2.30;99.90;;;;;;4916531;29;20177;-91
2023/03/01 03:22:50;;;;;;;11.65;10.23;;;2.40;93.90;;;;;;4917567;29;20176;-82
2023/03/01 03:25:17;;;;;;;13.13;10.52;;;2.30;99.90;;;;;;4917580;29;20191;-89
2023/03/01 03:27:45;;;;;;;20.02;12.52;;;2.30;99.90;;;;;;4916802;29;20217;-89
2023/03/01 03:30:14;;;;;;;16.50;12.05;;;2.30;99.90;;;;;;4916974;29;20240;-90
2023/03/01 03:32:41;;;;;;;13.75;10.93;;;2.20;99.90;;;;;;4916773;29;20645;-89
2023/03/01 03:35:09;;;;;;;12.13;10.63;;;2.20;99.90;;;;;;4915970;29;20378;-89
2023/03/01 03:40:21;;;;;;;14.15;11.20;;;2.10;99.90;;;;;;4914926;29;20277;-90
2023/03/01 03:42:48;;;;;;;11.77;10.23;;;;;;;;;;4916295;29;20316;-83
2023/03/01 03:45:14;;;;;;;15.32;10.18;;;2.10;99.90;;;;;;4916879;29;20202;-90
2023/03/01 03:47:39;;;;;;;14.45;10.75;;;2.10;99.90;;;;;;4907599;29;20209;-90
2023/03/01 03:50:05;;;;;;;14.97;11.10;;;2.10;99.90;;;;;;4918864;29;20197;-90
2023/03/01 03:52:32;;;;;;;12.93;10.23;;;;;;;;;;4916622;29;20189;-90
2023/03/01 03:54:57;;;;;;;13.27;10.05;;;2.20;99.90;;;;;;4915807;29;20475;-90
2023/03/01 03:57:23;;;;;;;14.07;10.40;;;;;;;;;;4916457;29;20223;-90
2023/03/01 03:59:49;;;;;;;12.40;10.35;;;;;;;;;;4918441;29;20203;-84
2023/03/01 04:02:21;;;;;;;14.98;10.18;;;;;;;;;;4915945;29;20187;-89
2023/03/01 04:04:52;;;;;;;13.02;9.98;;;2.20;94.90;;;;;;4915502;29;20275;-83
2023/03/01 04:07:18;;;;;;;12.02;10.00;;;2.10;99.90;;;;;;4917599;29;20211;-89
2023/03/01 04:09:44;;;;;;;12.03;9.80;;;;;;;;;;4916891;29;20200;-89
2023/03/01 04:12:10;;;;;;;16.20;10.85;;;2.10;99.90;;;;;;4931770;29;20594;-89
2023/03/01 04:14:36;;;;;;;14.60;11.73;;;2.10;99.90;;;;;;4917886;29;20273;-89
2023/03/01 04:17:05;;;;;;;14.03;10.10;;;;;;;;;;4917111;29;20183;-88
2023/03/01 04:19:35;;;;;;;14.43;10.05;;;2.10;99.90;;;;;;4916361;29;20433;-88
2023/03/01 04:22:07;;;;;;;16.10;11.20;;;2.10;99.90;;;;;;4916602;29;20173;-89
2023/03/01 04:24:33;;;;;;;14.70;10.80;;;1.90;95.60;;;;;;4917520;29;20171;-88
2023/03/01 04:26:59;;;;;;;13.75;11.15;;;2.10;99.90;;;;;;4915609;29;20246;-88
2023/03/01 04:29:25;;;;;;;13.43;11.47;;;;;;;;;;4917476;29;20213;-87
2023/03/01 04:31:51;;;;;;;12.13;10.65;;;;;;;;;;4912976;29;20242;-81
2023/03/01 04:34:17;;;;;;;12.23;10.05;;;1.80;99.40;;;;;;4914624;29;20189;-90
2023/03/01 04:36:42;;;;;;;13.87;11.23;;;1.90;99.90;;;;;;4915973;29;20259;-90
2023/03/01 04:39:11;;;;;;;15.40;11.07;;;;;;;;;;4916241;29;20689;-89
2023/03/01 04:41:38;;;;;;;13.85;11.15;;;1.80;94.70;;;;;;4916116;29;20180;-89
2023/03/01 04:44:05;;;;;;;12.35;10.95;;;1.80;99.90;;;;;;4915739;29;20228;-89
2023/03/01 04:46:31;;;;;;;13.32;11.35;;;1.80;99.90;;;;;;4917251;29;20259;-89
2023/03/01 04:48:57;;;;;;;11.50;10.30;;;;;;;;;;4916898;29;20192;-89
2023/03/01 04:51:23;;;;;;;13.32;10.20;;;2.40;96.40;;;;;;4916356;29;20476;-89
2023/03/01 04:53:49;;;;;;;14.17;11.70;;;;;;;;;;4916426;29;20646;-82
2023/03/01 04:56:17;;;;;;;12.80;11.00;;;1.70;94.90;;;;;;4917164;29;20562;-89
2023/03/01 04:58:44;;;;;;;15.52;12.35;;;1.60;99.90;;;;;;4916818;29;20188;-89
2023/03/01 05:01:16;;;;;;;15.23;12.10;;;1.60;99.90;;;;;;4916777;29;20177;-89
2023/03/01 05:03:47;;;;;;;13.15;10.85;;;0.90;99.90;;;;;;4916790;29;20265;-89
2023/03/01 05:06:13;;;;;;;13.57;10.35;;;0.90;99.90;;;;;;4914618;29;20201;-89
2023/03/01 05:08:39;;;;;;;16.80;10.60;;;0.70;99.90;;;;;;4917286;29;20190;-88
2023/03/01 05:11:08;;;;;;;18.35;12.40;;;0.70;99.90;;;;;;4916547;29;20304;-88
2023/03/01 05:13:36;;;;;;;14.23;11.30;;;0.70;99.90;;;;;;4916814;29;20178;-89
2023/03/01 05:16:03;;;;;;;13.50;10.02;;;0.80;99.90;;;;;;4916231;29;20184;-88
2023/03/01 05:18:30;;;;;;;15.55;11.05;;;1.60;99.90;;;;;;4914639;29;20210;-88
2023/03/01 05:21:03;;;;;;;15.43;10.60;;;1.30;99.90;;;;;;4915840;29;20633;-88
2023/03/01 05:23:30;;;;;;;15.05;10.10;;;1.20;99.90;;;;;;4915565;29;20184;-89
2023/03/01 05:26:00;;;;;;;14.02;10.32;;;1.30;99.90;;;;;;4916104;29;20235;-88
2023/03/01 05:28:30;;;;;;;15.80;10.48;;;1.70;99.90;;;;;;4916812;29;20227;-89
2023/03/01 05:30:56;;;;;;;17.13;10.63;;;1.30;99.90;;;;;;4915042;29;20184;-88
2023/03/01 05:33:22;;;;;;;16.23;11.15;;;1.30;99.90;;;;;;4921036;29;20211;-88
2023/03/01 05:35:50;;;;;;;16.65;12.05;;;1.50;99.90;;;;;;4919320;29;20180;-89
2023/03/01 05:38:16;;;;;;;17.90;10.32;;;0.90;99.90;;;;;;4916002;29;20191;-89
2023/03/01 05:40:46;;;;;;;14.20;12.13;;;1.30;99.90;;;;;;4916128;29;20183;-88
2023/03/01 05:43:13;;;;;;;19.77;12.73;;;1.40;99.90;;;;;;4916381;29;20234;-89
2023/03/01 05:45:40;;;;;;;19.42;10.38;;;1.10;97.90;;;;;;4916541;29;20238;-88
2023/03/01 05:48:07;;;;;;;11.85;10.63;;;1.30;99.90;;;;;;4915884;29;20221;-88
2023/03/01 05:50:35;;;;;;;13.20;11.13;;;0.70;99.90;;;;;;4915257;29;20192;-88
2023/03/01 05:53:04;;;;;;;14.27;10.85;;;0.90;99.90;;;;;;4912661;29;20685;-84
2023/03/01 05:55:30;;;;;;;13.10;10.32;;;0.90;99.90;;;;;;4915508;29;20620;-83
2023/03/01 05:58:05;;;;;;;12.73;9.25;;;0.90;99.90;;;;;;4919454;29;20179;-85
2023/03/01 06:00:31;;;;;;;15.18;11.10;;;0.90;99.90;;;;;;4919814;29;20658;-80
2023/03/01 06:02:58;;;;;;;13.10;11.07;;;0.80;99.90;;;;;;4917705;29;20531;-82
2023/03/01 06:05:25;;;;;;;19.23;10.82;;;0.90;99.90;;;;;;4918637;29;20179;-83
2023/03/01 06:07:50;;;;;;;17.83;12.82;;;1.10;99.90;;;;;;4901220;29;20249;-83
2023/03/01 06:10:18;;;;;;;13.80;11.43;;;1.10;99.90;;;;;;4899029;29;21107;-81
2023/03/01 06:12:44;;;;;;;11.48;10.30;;;1.10;99.90;;;;;;4899764;29;20191;-89
2023/03/01 06:15:12;;;;;;;12.50;11.20;;;1.30;99.90;;;;;;4905217;29;20186;-90
2023/03/01 06:17:40;;;;;;;15.02;11.50;;;1.30;99.60;;;;;;4918811;29;20199;-90
2023/03/01 06:20:13;;;;;;;17.88;12.25;;;1.40;99.00;;;;;;4918457;29;20639;-89
2023/03/01 06:22:39;;;;;;;12.18;10.93;;;1.50;98.60;;;;;;4920288;29;20262;-88
2023/03/01 06:25:05;;;;;;;17.27;11.60;;;2.00;98.50;;;;;;4915778;29;21000;-86
2023/03/01 06:27:31;;;;;;;13.68;11.50;;;1.70;98.10;;;;;;4915489;29;20474;-88
2023/03/01 06:29:57;;;;;;;13.33;11.60;;;1.70;98.10;;;;;;4914950;29;20218;-82
2023/03/01 06:32:22;;;;;;;17.00;13.40;;;1.70;98.30;;;;;;4918134;29;20206;-86
2023/03/01 06:34:49;;;;;;;16.07;13.20;;;2.50;99.90;;;;;;4918711;29;20191;-85
2023/03/01 06:37:16;;;;;;;14.43;11.98;;;3.50;99.90;;;;;;4919037;29;20224;-86
2023/03/01 06:39:41;;;;;;;14.18;12.52;;;4.60;99.90;;;;;;4919865;29;20193;-86
2023/03/01 06:42:09;;;;;;;15.47;12.50;;;6.40;98.10;;;;;;4917081;29;20238;-86
2023/03/01 06:44:36;;;;;;;14.60;11.80;;;6.40;98.40;;;;;;4919854;29;20254;-87
2023/03/01 06:47:03;;;;;;;12.98;11.07;;;7.60;99.50;;;;;;4918756;29;20210;-89
2023/03/01 06:49:29;;;;;;;14.52;12.43;;;8.10;90.90;;;;;;4918060;29;20183;-89
2023/03/01 06:51:55;;;;;;;14.40;13.00;;;;;;;;;;4919500;29;20175;-88
2023/03/01 06:54:22;;;;;;;12.93;11.52;;;6.40;92.90;;;;;;4918654;29;20526;-88
2023/03/01 06:56:48;;;;;;;18.52;12.43;;;5.90;93.50;;;;;;4918105;29;20194;-88
2023/03/01 06:59:14;;;;;;;13.70;11.65;;;5.60;95.50;;;;;;4916837;29;20182;-88
2023/03/01 07:01:40;;;;;;;16.60;12.07;;;5.50;77.90;;;;;;4911850;29;20185;-88
2023/03/01 07:04:06;;;;;;;14.43;11.60;;;4.80;96.40;;;;;;4916338;29;20556;-89
2023/03/01 07:06:31;;;;;;;15.80;11.60;;;4.60;93.40;;;;;;4918673;29;20220;-88
2023/03/01 07:08:57;;;;;;;18.83;12.50;;;;;;;;;;4918109;29;20205;-83
2023/03/01 07:11:23;;;;;;;15.20;11.90;;;4.10;97.80;;;;;;4916430;29;20269;-88
2023/03/01 07:13:49;;;;;;;17.27;13.50;;;3.80;94.90;;;;;;4907727;29;20282;-88
2023/03/01 07:16:15;;;;;;;17.83;13.10;;;;;;;;;;4911994;29;20465;-88
2023/03/01 07:18:41;;;;;;;16.27;12.27;;;3.50;88.50;;;;;;4919666;29;20572;-87
2023/03/01 07:21:09;;;;;;;16.75;12.52;;;3.10;97.70;;;;;;4920438;29;20193;-87
2023/03/01 07:23:34;;;;;;;17.05;12.40;;;3.00;92.20;;;;;;4925747;29;20189;-86
2023/03/01 07:26:01;;;;;;;16.87;12.67;;;;;;;;;;4928949;29;20217;-82
2023/03/01 07:28:30;;;;;;;17.48;12.90;;;2.90;92.70;;;;;;4936520;29;20484;-85
2023/03/01 07:31:01;;;;;;;15.65;11.45;;;2.90;99.90;;;;;;4937845;29;20193;-87
2023/03/01 07:33:27;;;;;;;18.65;12.20;;;3.20;94.50;;;;;;4941849;29;20176;-87
2023/03/01 07:35:57;;;;;;;18.73;12.27;;;2.80;94.50;;;;;;4932662;29;20265;-86
2023/03/01 07:38:23;;;;;;;16.50;12.40;;;2.80;99.90;;;;;;4918411;29;20196;-87
2023/03/01 07:40:49;;;;;;;20.73;14.00;;;2.80;95.10;;;;;;4920906;29;20571;-87
2023/03/01 07:43:15;;;;;;;16.13;13.33;;;;;;;;;;4919211;29;20319;-87
2023/03/01 07:45:41;;;;;;;16.70;13.88;;;2.60;99.90;;;;;;4921562;29;20193;-87
2023/03/01 07:48:07;;;;;;;17.20;12.90;;;;;;;;;;4920290;29;20196;-87
2023/03/01 07:50:33;;;;;;;17.63;13.35;;;2.60;96.10;;;;;;4920819;29;20186;-86
2023/03/01 07:52:59;;;;;;;15.83;12.77;;;;;;;;;;4914865;29;20285;-83
2023/03/01 07:55:24;;;;;;;15.68;12.90;;;3.70;97.10;;;;;;4910285;29;20420;-87
2023/03/01 07:57:50;;;;;;;15.50;13.07;;;;;;;;;;4899419;29;20291;-87
2023/03/01 08:00:17;;;;;;;17.02;12.10;;;2.60;99.90;;;;;;4915062;29;20642;-87
2023/03/01 08:02:43;;;;;;;15.95;11.65;;;;;;;;;;4915964;29;20280;-87
2023/03/01 08:05:09;;;;;;;20.38;13.90;;;3.00;96.50;;;;;;4915045;29;20255;-87
2023/03/01 08:07:35;;;;;;;15.73;12.57;;;3.60;97.10;;;;;;4914831;29;20268;-87
2023/03/01 08:10:02;;;;;;;16.43;12.07;;;;;;;;;;4913962;29;20194;-86
2023/03/01 08:12:28;;;;;;;16.90;12.30;;;3.20;95.70;;;;;;4915276;29;20198;-87
2023/03/01 08:14:54;;;;;;;16.63;12.50;;;3.20;95.70;;;;;;4917052;29;20665;-87
2023/03/01 08:17:19;;;;;;;14.30;11.52;;;3.20;95.10;;;;;;4915242;29;20217;-87
2023/03/01 08:19:48;;;;;;;15.80;12.02;;;;;;;;;;4916666;29;20181;-87
2023/03/01 08:22:14;;;;;;;15.23;12.20;;;2.90;94.20;;;;;;4917471;29;20204;-87
2023/03/01 08:24:40;;;;;;;16.55;11.93;;;2.60;96.00;;;;;;4919454;29;20208;-86
2023/03/01 08:27:06;;;;;;;16.40;12.40;;;2.40;96.60;;;;;;4924026;29;20221;-85
2023/03/01 08:29:32;;;;;;;17.83;11.57;;;2.40;97.80;;;;;;4926018;29;20653;-85
2023/03/01 08:31:59;;;;;;;16.17;12.48;;;3.80;98.80;;;;;;4925115;29;20185;-86
2023/03/01 08:34:25;;;;;;;18.05;12.40;;;;;;;;;;4921550;29;20185;-86
2023/03/01 08:36:54;;;;;;;15.10;12.32;;;2.90;98.20;;;;;;4906814;29;20181;-86
2023/03/01 08:39:20;;;;;;;19.50;11.63;;;3.10;99.80;;;;;;4906051;29;20196;-84
2023/03/01 08:41:47;;;;;;;16.55;10.85;;;3.20;99.10;;;;;;4922206;29;20185;-82
2023/03/01 08:44:16;;;;;;;15.05;12.13;;;3.50;96.30;;;;;;4917204;29;20193;-83
2023/03/01 08:46:44;;;;;;;15.05;10.65;;;5.20;97.50;;;;;;4917228;29;20217;-83
2023/03/01 08:49:16;;;;;;;12.57;10.20;;;3.60;96.80;;;;;;4915148;29;20651;-86
2023/03/01 08:51:43;;;;;;;14.98;11.75;;;4.00;99.90;;;;;;4915833;29;20186;-89
2023/03/01 08:54:14;;;;;;;16.92;11.20;;;3.90;95.30;;;;;;4915084;29;20193;-86
2023/03/01 08:56:41;;;;;;;18.83;11.45;;;4.00;96.50;;;;;;4913053;29;20191;-87
2023/03/01 08:59:07;;;;;;;13.63;10.50;;;4.10;95.50;;;;;;4915358;29;20186;-85
2023/03/01 09:01:33;;;;;;;18.80;11.00;;;;;;;;;;4922356;29;20189;-87
2023/03/01 09:03:59;;;;;;;17.65;11.95;;;4.20;94.50;;;;;;4920667;29;20442;-88
2023/03/01 09:06:25;;;;;;;16.10;10.60;;;4.20;95.60;;;;;;4916911;29;20384;-87
2023/03/01 09:08:51;;;;;;;13.20;11.05;;;4.40;96.00;;;;;;4912490;29;20264;-87
2023/03/01 09:11:20;;;;;;;15.00;10.87;;;4.60;94.30;;;;;;4919381;29;20206;-87
2023/03/01 09:13:47;;;;;;;11.98;10.73;;;4.60;94.70;;;;;;4916765;29;20201;-87
2023/03/01 09:16:16;;;;;;;12.90;11.38;;;4.70;94.80;;;;;;4915766;29;20182;-87
2023/03/01 09:18:42;;;;;;;16.17;11.60;;;5.60;95.30;;;;;;4917033;29;20186;-86
2023/03/01 09:21:11;;;;;;;12.97;9.40;;;5.20;93.90;;;;;;4908368;29;20184;-86
2023/03/01 09:23:39;;;;;;;12.45;10.32;;;5.00;93.70;;;;;;4896062;29;20455;-86
2023/03/01 09:26:08;;;;;;;12.95;9.70;;;5.10;93.00;;;;;;4908584;29;20186;-85
2023/03/01 09:28:34;;;;;;;10.43;9.43;;;;;;;;;;4915560;29;20229;-85
2023/03/01 09:31:01;;;;;;;10.45;8.65;;;5.30;91.80;;;;;;4915983;29;20191;-85
2023/03/01 09:33:28;;;;;;;11.52;9.68;;;5.20;90.30;;;;;;4918347;29;20376;-84
2023/03/01 09:36:02;;;;;;;13.32;9.68;;;5.40;90.00;;;;;;4916569;29;20245;-85
2023/03/01 09:38:29;;;;;;;9.88;8.50;;;5.50;89.70;;;;;;4918348;29;20633;-85
2023/03/01 09:40:55;;;;;;;10.05;9.07;;;6.00;88.10;;;;;;4918621;29;20194;-84
2023/03/01 09:43:34;;;;;;;12.53;8.60;;;6.10;87.00;;;;;;4917046;29;20707;-85
2023/03/01 09:46:06;;;;;;;9.70;8.70;;;6.20;86.50;;;;;;4919379;29;20411;-84
2023/03/01 09:48:41;;;;;;;10.83;9.33;;;6.50;86.30;;;;;;4918658;29;20502;-85
2023/03/01 09:51:14;;;;;;;10.57;8.90;;;7.20;80.50;;;;;;4919148;29;20424;-84
2023/03/01 09:53:40;;;;;;;10.33;9.27;;;7.20;81.20;;;;;;4919293;29;20449;-84
2023/03/01 09:56:28;;;;;;;10.00;9.10;;;7.50;80.70;;;;;;4919199;29;20420;-84
2023/03/01 09:59:33;;;;;;;9.27;8.33;;;7.80;78.70;;;;;;4919347;29;20615;-84
2023/03/01 10:02:20;;;;;;;8.73;7.97;;;8.30;77.30;;;;;;4917662;29;20441;-84
2023/03/01 10:04:53;;;;;;;8.13;7.43;;;8.40;72.20;;;;;;4918341;29;20457;-84
2023/03/01 10:07:32;;;;;;;10.87;8.57;;;8.70;73.50;;;;;;4917858;29;20477;-84
2023/03/01 10:10:00;;;;;;;9.83;8.93;;;8.90;71.30;;;;;;4917976;29;20786;-84
2023/03/01 10:12:37;;;;;;;9.47;8.53;;;9.20;70.60;;;;;;4918413;29;20427;-84
2023/03/01 10:15:06;;;;;;;10.60;9.17;;;9.40;68.90;;;;;;4918585;29;20443;-84
2023/03/01 10:17:46;;;;;;;9.40;8.47;;;9.50;68.00;;;;;;4921535;29;20419;-85
2023/03/01 10:20:27;;;;;;;10.30;9.33;;;9.80;68.00;;;;;;4921003;29;20407;-82
2023/03/01 10:22:55;;;;;;;9.37;8.57;;;;;;;;;;4918223;29;20432;-82
2023/03/01 10:25:35;;;;;;;9.77;8.73;;;10.20;66.90;;;;;;4917160;29;20441;-83
2023/03/01 10:28:30;;;;;;;9.90;9.00;;;10.50;63.70;;;;;;4918825;29;20459;-83
2023/03/01 10:30:58;;;;;;;10.87;9.30;;;10.60;62.10;;;;;;4913335;29;20436;-83
2023/03/01 10:33:33;;;;;;;10.33;9.37;;;10.80;62.00;;;;;;4901393;29;20429;-83
2023/03/01 10:35:59;;;;;;;10.30;9.50;;;10.80;61.70;;;;;;4918119;29;20484;-83
2023/03/01 10:38:25;;;;;;;10.60;9.50;;;10.90;60.50;;;;;;4918566;29;20428;-83
2023/03/01 10:41:08;;;;;;;10.53;9.53;;;11.20;59.70;;;;;;4918091;29;20182;-83
2023/03/01 10:43:49;;;;;;;11.97;9.80;;;11.20;58.90;;;;;;4899242;29;20239;-83
2023/03/01 10:46:34;;;;;;;9.63;8.70;;;11.30;59.40;;;;;;4899108;29;20428;-83
2023/03/01 10:49:21;;;;;;;10.43;8.60;;;11.60;61.00;;;;;;4914283;29;20420;-83
2023/03/01 10:51:50;;;;;;;10.80;9.70;;;11.80;60.90;;;;;;4899592;29;20475;-83
2023/03/01 10:54:22;;;;;;;9.80;8.90;;;12.10;58.30;;;;;;4899299;29;20415;-83
2023/03/01 10:56:52;;;;;;;11.53;10.53;;;12.20;56.90;;;;;;4899078;29;20467;-83
2023/03/01 10:59:38;;;;;;;11.07;9.87;;;12.40;57.60;;;;;;4899251;29;20878;-83
2023/03/01 11:02:18;;;;;;;10.27;9.27;;;12.50;56.90;;;;;;4899215;29;20444;-83
2023/03/01 11:05:12;;;;;;;11.37;10.37;;;12.40;53.90;;;;;;4899294;29;20551;-83
2023/03/01 11:07:49;;;;;;;11.50;10.53;;;12.10;56.50;;;;;;4892951;29;20463;-83
2023/03/01 11:10:25;;;;;;;11.90;10.77;;;12.20;57.00;;;;;;4898225;29;20435;-83
2023/03/01 11:12:52;;;;;;;10.93;9.97;;;12.30;57.90;;;;;;4912368;29;20441;-83
2023/03/01 11:15:27;;;;;;;11.53;10.43;;;12.20;57.80;;;;;;4917363;29;20417;-83
2023/03/01 11:17:55;;;;;;;10.90;9.97;;;12.10;58.10;;;;;;4918023;29;20422;-83
2023/03/01 11:20:33;;;;;;;11.00;10.00;;;12.10;57.50;;;;;;4917303;29;20943;-83
2023/03/01 11:23:03;;;;;;;12.73;10.10;;;12.80;55.30;;;;;;4917428;29;20435;-83
2023/03/01 11:25:37;;;;;;;13.00;11.87;;;12.80;55.90;;;;;;4897237;29;20785;-83
2023/03/01 11:28:04;;;;;;;12.37;10.60;;;13.00;57.20;;;;;;4899827;29;20497;-83
2023/03/01 11:30:46;;;;;;;10.67;9.77;;;13.10;55.40;;;;;;4898420;29;20420;-83
2023/03/01 11:33:33;;;;;;;9.67;8.77;;;12.50;56.00;;;;;;4898631;29;20437;-82
2023/03/01 11:36:06;;;;;;;11.23;9.97;;;12.60;55.50;;;;;;4898727;29;20404;-83
2023/03/01 11:38:35;;;;;;;10.97;9.87;;;12.80;55.60;;;;;;4898237;29;20661;-83
2023/03/01 11:41:14;;;;;;;11.10;10.03;;;13.00;55.60;;;;;;4898533;29;20420;-83
2023/03/01 11:44:01;;;;;;;11.43;10.30;;;13.10;55.80;;;;;;4912126;29;20478;-82
2023/03/01 11:46:33;;;;;;;11.00;9.90;;;12.70;56.60;;;;;;4896312;29;20435;-83
2023/03/01 11:49:36;;;;;;;10.80;9.90;;;12.90;56.00;;;;;;4898423;29;20425;-83
2023/03/01 11:52:16;;;;;;;12.03;10.70;;;13.00;54.70;;;;;;4898448;29;20461;-83
2023/03/01 11:54:44;;;;;;;10.87;9.87;;;13.00;56.40;;;;;;4915376;29;20523;-83
2023/03/01 11:57:43;;;;;;;11.53;10.40;;;13.30;57.10;;;;;;4917357;29;20431;-83
2023/03/01 12:00:25;;;;;;;12.60;11.23;;;13.20;55.20;;;;;;4913566;29;20424;-83
2023/03/01 12:03:13;;;;;;;12.23;11.03;;;13.30;55.60;;;;;;4916971;29;20448;-83
2023/03/01 12:06:03;;;;;;;11.90;10.70;;;13.20;55.00;;;;;;4916255;29;20788;-83
2023/03/01 12:08:53;;;;;;;10.83;9.80;;;13.40;55.00;;;;;;4916342;29;20457;-83
2023/03/01 12:11:51;;;;;;;11.43;10.33;;;13.20;55.40;;;;;;4916459;29;20459;-83
2023/03/01 12:14:28;;;;;;;11.80;10.60;;;13.20;55.90;;;;;;4916322;29;20773;-83
2023/03/01 12:17:05;;;;;;;10.30;9.10;;;13.00;55.80;;;;;;4917132;29;20415;-83
2023/03/01 12:19:52;;;;;;;10.53;9.43;;;13.10;55.20;;;;;;4916294;29;20481;-83
2023/03/01 12:22:28;;;;;;;11.00;9.60;;;13.30;56.30;;;;;;4916470;29;20435;-82
2023/03/01 12:25:20;;;;;;;10.70;9.60;;;13.30;56.60;;;;;;4908962;29;20435;-82
2023/03/01 12:28:14;;;;;;;10.47;9.30;;;13.30;54.40;;;;;;4916779;29;20549;-83
2023/03/01 12:31:15;;;;;;;10.87;9.70;;;13.20;55.30;;;;;;4911193;29;20434;-83
2023/03/01 12:34:07;;;;;;;10.43;9.50;;;13.10;55.80;;;;;;4915714;29;20452;-83
2023/03/01 12:36:54;;;;;;;10.27;9.17;;;12.90;55.10;;;;;;4919684;29;20908;-83
2023/03/01 12:39:55;;;;;;;10.27;9.07;;;12.80;56.00;;;;;;4915539;29;20449;-82
2023/03/01 12:42:21;;;;;;;12.20;9.40;;;12.40;57.30;;;;;;4916244;29;20461;-83
2023/03/01 12:44:56;;;;;;;10.70;9.40;;;12.00;57.50;;;;;;4914848;29;20449;-83
2023/03/01 12:47:26;;;;;;;10.33;9.13;;;11.80;57.10;;;;;;4914882;29;20277;-82
2023/03/01 12:50:01;;;;;;;10.53;9.53;;;11.70;58.00;;;;;;4915391;29;20474;-83
2023/03/01 12:52:49;;;;;;;9.13;8.23;;;11.20;58.50;;;;;;4915854;29;20398;-82
2023/03/01 12:55:24;;;;;;;11.60;9.93;;;11.10;58.80;;;;;;4916555;29;20443;-82
2023/03/01 12:58:11;;;;;;;12.80;10.40;;;11.20;57.60;;;;;;4915354;29;20410;-82
2023/03/01 13:00:58;;;;;;;12.73;10.30;;;11.20;58.20;;;;;;4915825;29;20667;-83
2023/03/01 13:03:48;;;;;;;11.00;10.00;;;11.20;58.50;;;;;;4915882;29;20405;-83
2023/03/01 13:06:21;;;;;;;10.73;9.63;;;11.10;58.20;;;;;;4917916;29;20786;-83